Pti Sextans — VRCS6 — position and weather

sailwx.info

Track history (hours):
 
Tides and Currents Weather Stations Pressure Air Temp Water Temp Dewpoint Dewpoint Depression Visibility Wind Speed Wind Dir Waves Ship Positions

Pti Sextans

Last reported at 2017-Nov-14 18:19 UTC. Time now 2017-Nov-20 13:37 UTC.
Position N 27°48' W 016°30'.

Length 183 m; draft 7.5 m.

Type: Tanker. MMSI: 477768200.

Date/timePositionNaut miles runAvg speedWind from/ knotsBaromVisibWave heightAir tempDewpointWater temp
2017-Nov-14 18:19N 27°48' W 016°30'3813.9
2017-Nov-14 15:35N 28°19' W 016°05'113.4
2017-Nov-14 15:28N 28°20' W 016°06'613.2
2017-Nov-14 15:00N 28°25' W 016°10'4 5.5
2017-Nov-14 14:12N 28°29' W 016°13'0 0.1
2017-Nov-14 13:54N 28°29' W 016°13'0 0.0
2017-Nov-14 07:33N 28°29' W 016°13'0 0.0
2017-Nov-14 07:15N 28°29' W 016°13'0 0.0
2017-Nov-14 06:33N 28°29' W 016°13'0 0.4
2017-Nov-14 06:15N 28°29' W 016°13'1 2.1
2017-Nov-14 05:59N 28°28' W 016°13'5 6.7
2017-Nov-14 05:16N 28°26' W 016°08'5 6.8
2017-Nov-14 04:30N 28°24' W 016°02'3 6.4
2017-Nov-14 04:00N 28°23' W 015°59'4 7.1
2017-Nov-14 03:30N 28°26' W 015°57'3 5.4
2017-Nov-14 02:59N 28°28' W 015°55'1 1.7
2017-Nov-14 02:30N 28°29' W 015°54'3 6.8
2017-Nov-14 02:00N 28°31' W 015°51'714.3
2017-Nov-14 01:30N 28°36' W 015°45'714.3
2017-Nov-14 01:00N 28°41' W 015°39'714.3
2017-Nov-14 00:30N 28°46' W 015°34'714.1
2017-Nov-14 00:00N 28°52' W 015°28'714.1
2017-Nov-13 23:30N 28°57' W 015°23'714.3
2017-Nov-13 23:00N 29°02' W 015°17'42113.3
2017-Nov-12 15:17N 35°48' W 013°08'413.4
2017-Nov-12 15:00N 35°52' W 013°07'13613.7
2017-Nov-12 05:07N 38°04' W 012°28'514.2
2017-Nov-12 04:45N 38°09' W 012°26'314.0
2017-Nov-12 04:31N 38°12' W 012°25'713.8
2017-Nov-12 04:00N 38°19' W 012°22'713.8
2017-Nov-12 03:30N 38°26' W 012°19'714.0
2017-Nov-12 02:58N 38°33' W 012°17'714.1
2017-Nov-12 02:27N 38°40' W 012°15'13913.8
2017-Nov-11 16:23N 40°54' W 011°31'53912.7
2017-Nov-09 21:57N 47°04' W 002°27'611.2
2017-Nov-09 21:24N 47°08' W 002°21'911.8
2017-Nov-09 20:37N 47°16' W 002°12'112.1
2017-Nov-09 20:30N 47°17' W 002°11'4 8.6
2017-Nov-09 20:00N 47°18' W 002°05'0 0.0
2017-Nov-09 09:28N 47°18' W 002°04'0 0.0
2017-Nov-09 08:55N 47°18' W 002°04'0 0.0
2017-Nov-09 08:25N 47°18' W 002°04'0 0.0
2017-Nov-09 06:52N 47°18' W 002°04'0 0.0
2017-Nov-09 06:28N 47°18' W 002°04'0 0.0
2017-Nov-09 05:13N 47°18' W 002°04'0 0.0
2017-Nov-09 04:58N 47°18' W 002°04'0 0.0
2017-Nov-09 03:43N 47°18' W 002°04'0 0.0
2017-Nov-09 03:01N 47°18' W 002°04'0 0.0
2017-Nov-09 00:49N 47°18' W 002°04'0 0.0
2017-Nov-09 00:07N 47°18' W 002°04'0 0.0
2017-Nov-08 23:58N 47°18' W 002°04'0 0.0
2017-Nov-08 23:19N 47°18' W 002°04'0 0.0
2017-Nov-08 21:58N 47°18' W 002°04'0 0.0
2017-Nov-08 21:25N 47°18' W 002°04'0 0.0
2017-Nov-08 20:58N 47°18' W 002°04'0 0.0
2017-Nov-08 20:10N 47°18' W 002°04'0 0.0
2017-Nov-08 19:46N 47°18' W 002°04'0 0.0
2017-Nov-08 19:25N 47°18' W 002°04'0 0.0
2017-Nov-08 15:13N 47°18' W 002°04'0 0.0
2017-Nov-08 14:55N 47°18' W 002°04'0 0.0
2017-Nov-08 14:25N 47°18' W 002°04'0 0.0
2017-Nov-08 12:55N 47°18' W 002°04'0 0.0
2017-Nov-08 12:25N 47°18' W 002°04'0 0.0
2017-Nov-08 09:04N 47°18' W 002°04'0 0.0
2017-Nov-08 08:55N 47°18' W 002°04'0 0.0
2017-Nov-08 08:22N 47°18' W 002°04'0 0.0
2017-Nov-08 07:37N 47°18' W 002°04'0 0.0
2017-Nov-08 07:22N 47°18' W 002°04'0 0.0
2017-Nov-08 06:58N 47°18' W 002°04'0 0.0
2017-Nov-08 06:30N 47°18' W 002°04'2 3.6
2017-Nov-08 06:00N 47°18' W 002°07'611.7
2017-Nov-08 05:30N 47°15' W 002°14'611.9
2017-Nov-08 05:00N 47°10' W 002°19'4 8.1
2017-Nov-08 04:30N 47°07' W 002°23'3 6.0
2017-Nov-08 04:00N 47°08' W 002°27'1 1.8
2017-Nov-08 03:28N 47°08' W 002°28'0 0.0
2017-Nov-08 02:58N 47°08' W 002°28'0 0.0
2017-Nov-08 02:25N 47°08' W 002°28'0 0.0
2017-Nov-08 01:58N 47°08' W 002°28'0 0.0
2017-Nov-08 01:25N 47°08' W 002°28'0 0.0
2017-Nov-08 00:55N 47°08' W 002°28'0 0.0
2017-Nov-08 00:28N 47°08' W 002°28'0 0.1
2017-Nov-07 23:58N 47°08' W 002°28'0 0.0
2017-Nov-07 23:28N 47°08' W 002°28'0 0.0
2017-Nov-07 22:58N 47°08' W 002°28'0 0.0
2017-Nov-07 22:28N 47°08' W 002°28'0 0.0
2017-Nov-07 21:55N 47°08' W 002°28'0 0.0
2017-Nov-07 21:25N 47°08' W 002°28'0 0.0
2017-Nov-07 20:55N 47°08' W 002°28'0 0.0
2017-Nov-07 20:28N 47°08' W 002°28'0 0.0
2017-Nov-07 19:55N 47°08' W 002°28'0 0.0
2017-Nov-07 19:28N 47°08' W 002°28'0 0.1
2017-Nov-07 18:58N 47°08' W 002°28'0 0.0
2017-Nov-07 18:25N 47°08' W 002°28'0 0.2
2017-Nov-07 17:55N 47°08' W 002°28'0 0.2
2017-Nov-07 17:13N 47°08' W 002°28'0 0.0
2017-Nov-07 16:58N 47°08' W 002°28'0 0.1
2017-Nov-07 16:28N 47°08' W 002°28'0 0.0
2017-Nov-07 15:55N 47°08' W 002°28'0 0.0
2017-Nov-07 15:22N 47°08' W 002°28'0 0.0
2017-Nov-07 14:55N 47°08' W 002°28'0 0.0
2017-Nov-07 14:28N 47°08' W 002°28'0 0.0
2017-Nov-07 13:43N 47°08' W 002°28'0 0.0
2017-Nov-07 13:25N 47°08' W 002°28'0 0.1
2017-Nov-07 12:55N 47°08' W 002°28'0 0.0
2017-Nov-07 12:10N 47°08' W 002°28'0 0.1
2017-Nov-07 11:46N 47°08' W 002°28'0 0.1
2017-Nov-07 11:22N 47°08' W 002°28'0 0.1
2017-Nov-07 10:58N 47°08' W 002°28'0 0.1
2017-Nov-07 10:01N 47°08' W 002°28'0 0.0
2017-Nov-07 09:49N 47°08' W 002°28'0 0.0
2017-Nov-07 09:10N 47°08' W 002°28'0 0.0
2017-Nov-07 08:49N 47°08' W 002°28'0 0.0
2017-Nov-07 08:13N 47°08' W 002°28'0 0.0
2017-Nov-07 07:58N 47°08' W 002°28'0 0.0
2017-Nov-07 07:28N 47°08' W 002°28'0 0.0
2017-Nov-07 06:58N 47°08' W 002°28'0 0.0
2017-Nov-07 06:28N 47°08' W 002°28'0 0.0
2017-Nov-07 05:55N 47°08' W 002°28'0 0.0
2017-Nov-07 05:25N 47°08' W 002°28'0 0.1
2017-Nov-07 04:58N 47°08' W 002°28'0 0.1
2017-Nov-07 04:28N 47°08' W 002°28'0 0.1
2017-Nov-07 03:58N 47°08' W 002°28'0 0.0
2017-Nov-07 03:28N 47°08' W 002°28'0 0.0
2017-Nov-07 02:49N 47°08' W 002°28'0 0.0
2017-Nov-07 02:25N 47°08' W 002°28'0 0.0
2017-Nov-07 01:58N 47°08' W 002°28'0 0.0
2017-Nov-07 01:28N 47°08' W 002°28'0 0.0
2017-Nov-07 00:58N 47°08' W 002°28'0 0.1
2017-Nov-07 00:28N 47°08' W 002°28'0 0.0
2017-Nov-06 23:58N 47°08' W 002°28'0 0.2
2017-Nov-06 23:28N 47°08' W 002°28'0 0.1
2017-Nov-06 22:55N 47°08' W 002°28'0 0.1
2017-Nov-06 22:28N 47°08' W 002°28'0 0.0
2017-Nov-06 21:58N 47°08' W 002°28'0 0.0
2017-Nov-06 21:25N 47°08' W 002°28'0 0.0
2017-Nov-06 20:58N 47°08' W 002°28'0 0.0
2017-Nov-06 20:28N 47°08' W 002°28'0 0.0
2017-Nov-06 02:31N 47°08' W 002°28'0 0.0
2017-Nov-06 02:01N 47°08' W 002°28'0 0.0
2017-Nov-06 01:31N 47°08' W 002°28'0 0.0
2017-Nov-06 01:01N 47°08' W 002°28'0 0.0
2017-Nov-06 00:31N 47°08' W 002°28'0 0.0
2017-Nov-06 00:01N 47°08' W 002°28'0 0.0
2017-Nov-05 23:31N 47°08' W 002°28'0 0.1
2017-Nov-05 23:01N 47°08' W 002°28'0 0.0
2017-Nov-05 22:31N 47°08' W 002°28'0 0.1
2017-Nov-05 22:01N 47°08' W 002°28'0 0.1
2017-Nov-05 21:31N 47°08' W 002°28'0 0.0
2017-Nov-05 20:55N 47°08' W 002°28'0 0.0
2017-Nov-05 20:28N 47°08' W 002°28'0 0.0
2017-Nov-05 20:01N 47°08' W 002°28'0 0.0
2017-Nov-05 19:22N 47°08' W 002°28'0 0.0
2017-Nov-05 18:43N 47°08' W 002°28'0 0.0
2017-Nov-05 18:21N 47°08' W 002°28'0 0.0
2017-Nov-05 17:57N 47°08' W 002°28'0 0.0
2017-Nov-05 17:30N 47°08' W 002°28'0 0.0
2017-Nov-05 17:01N 47°08' W 002°28'0 0.1
2017-Nov-05 16:31N 47°08' W 002°28'0 0.0
2017-Nov-05 14:40N 47°08' W 002°28'0 0.0
2017-Nov-05 14:21N 47°08' W 002°28'0 0.1
2017-Nov-05 13:58N 47°08' W 002°28'0 0.0
2017-Nov-05 13:25N 47°08' W 002°28'2 4.0
2017-Nov-05 12:59N 47°07' W 002°29'511.5
2017-Nov-05 12:30N 47°02' W 002°34'16511.6
2017-Nov-04 22:14N 44°18' W 003°01'311.8
2017-Nov-04 22:00N 44°15' W 003°01'712.3
2017-Nov-04 21:24N 44°08' W 003°02'1512.2
2017-Nov-04 20:08N 43°53' W 003°03'212.2
2017-Nov-04 20:00N 43°51' W 003°03'612.6
2017-Nov-04 19:30N 43°45' W 003°04'713.2
2017-Nov-04 19:00N 43°38' W 003°06'612.9
2017-Nov-04 18:30N 43°32' W 003°05'  
Track history (hours):
 
Tides and Currents Weather Stations Pressure Air Temp Water Temp Dewpoint Dewpoint Depression Visibility Wind Speed Wind Dir Waves Ship Positions

Pti Sextans

Last reported at 2017-Nov-14 18:19 UTC. Time now 2017-Nov-20 13:37 UTC.
Position N 27°48' W 016°30'.

Length 183 m; draft 7.5 m.

Type: Tanker. MMSI: 477768200.

Date/timePositionNaut miles runAvg speedWind from/ knotsBaromVisibWave heightAir tempDewpointWater temp
2017-Nov-14 18:19N 27°48' W 016°30'3813.9
2017-Nov-14 15:35N 28°19' W 016°05'113.4
2017-Nov-14 15:28N 28°20' W 016°06'613.2
2017-Nov-14 15:00N 28°25' W 016°10'4 5.5
2017-Nov-14 14:12N 28°29' W 016°13'0 0.1
2017-Nov-14 13:54N 28°29' W 016°13'0 0.0
2017-Nov-14 07:33N 28°29' W 016°13'0 0.0
2017-Nov-14 07:15N 28°29' W 016°13'0 0.0
2017-Nov-14 06:33N 28°29' W 016°13'0 0.4
2017-Nov-14 06:15N 28°29' W 016°13'1 2.1
2017-Nov-14 05:59N 28°28' W 016°13'5 6.7
2017-Nov-14 05:16N 28°26' W 016°08'5 6.8
2017-Nov-14 04:30N 28°24' W 016°02'3 6.4
2017-Nov-14 04:00N 28°23' W 015°59'4 7.1
2017-Nov-14 03:30N 28°26' W 015°57'3 5.4
2017-Nov-14 02:59N 28°28' W 015°55'1 1.7
2017-Nov-14 02:30N 28°29' W 015°54'3 6.8
2017-Nov-14 02:00N 28°31' W 015°51'714.3
2017-Nov-14 01:30N 28°36' W 015°45'714.3
2017-Nov-14 01:00N 28°41' W 015°39'714.3
2017-Nov-14 00:30N 28°46' W 015°34'714.1
2017-Nov-14 00:00N 28°52' W 015°28'714.1
2017-Nov-13 23:30N 28°57' W 015°23'714.3
2017-Nov-13 23:00N 29°02' W 015°17'42113.3
2017-Nov-12 15:17N 35°48' W 013°08'413.4
2017-Nov-12 15:00N 35°52' W 013°07'13613.7
2017-Nov-12 05:07N 38°04' W 012°28'514.2
2017-Nov-12 04:45N 38°09' W 012°26'314.0
2017-Nov-12 04:31N 38°12' W 012°25'713.8
2017-Nov-12 04:00N 38°19' W 012°22'713.8
2017-Nov-12 03:30N 38°26' W 012°19'714.0
2017-Nov-12 02:58N 38°33' W 012°17'714.1
2017-Nov-12 02:27N 38°40' W 012°15'13913.8
2017-Nov-11 16:23N 40°54' W 011°31'53912.7
2017-Nov-09 21:57N 47°04' W 002°27'611.2
2017-Nov-09 21:24N 47°08' W 002°21'911.8
2017-Nov-09 20:37N 47°16' W 002°12'112.1
2017-Nov-09 20:30N 47°17' W 002°11'4 8.6
2017-Nov-09 20:00N 47°18' W 002°05'0 0.0
2017-Nov-09 09:28N 47°18' W 002°04'0 0.0
2017-Nov-09 08:55N 47°18' W 002°04'0 0.0
2017-Nov-09 08:25N 47°18' W 002°04'0 0.0
2017-Nov-09 06:52N 47°18' W 002°04'0 0.0
2017-Nov-09 06:28N 47°18' W 002°04'0 0.0
2017-Nov-09 05:13N 47°18' W 002°04'0 0.0
2017-Nov-09 04:58N 47°18' W 002°04'0 0.0
2017-Nov-09 03:43N 47°18' W 002°04'0 0.0
2017-Nov-09 03:01N 47°18' W 002°04'0 0.0
2017-Nov-09 00:49N 47°18' W 002°04'0 0.0
2017-Nov-09 00:07N 47°18' W 002°04'0 0.0
2017-Nov-08 23:58N 47°18' W 002°04'0 0.0
2017-Nov-08 23:19N 47°18' W 002°04'0 0.0
2017-Nov-08 21:58N 47°18' W 002°04'0 0.0
2017-Nov-08 21:25N 47°18' W 002°04'0 0.0
2017-Nov-08 20:58N 47°18' W 002°04'0 0.0
2017-Nov-08 20:10N 47°18' W 002°04'0 0.0
2017-Nov-08 19:46N 47°18' W 002°04'0 0.0
2017-Nov-08 19:25N 47°18' W 002°04'0 0.0
2017-Nov-08 15:13N 47°18' W 002°04'0 0.0
2017-Nov-08 14:55N 47°18' W 002°04'0 0.0
2017-Nov-08 14:25N 47°18' W 002°04'0 0.0
2017-Nov-08 12:55N 47°18' W 002°04'0 0.0
2017-Nov-08 12:25N 47°18' W 002°04'0 0.0
2017-Nov-08 09:04N 47°18' W 002°04'0 0.0
2017-Nov-08 08:55N 47°18' W 002°04'0 0.0
2017-Nov-08 08:22N 47°18' W 002°04'0 0.0
2017-Nov-08 07:37N 47°18' W 002°04'0 0.0
2017-Nov-08 07:22N 47°18' W 002°04'0 0.0
2017-Nov-08 06:58N 47°18' W 002°04'0 0.0
2017-Nov-08 06:30N 47°18' W 002°04'2 3.6
2017-Nov-08 06:00N 47°18' W 002°07'611.7
2017-Nov-08 05:30N 47°15' W 002°14'611.9
2017-Nov-08 05:00N 47°10' W 002°19'4 8.1
2017-Nov-08 04:30N 47°07' W 002°23'3 6.0
2017-Nov-08 04:00N 47°08' W 002°27'1 1.8
2017-Nov-08 03:28N 47°08' W 002°28'0 0.0
2017-Nov-08 02:58N 47°08' W 002°28'0 0.0
2017-Nov-08 02:25N 47°08' W 002°28'0 0.0
2017-Nov-08 01:58N 47°08' W 002°28'0 0.0
2017-Nov-08 01:25N 47°08' W 002°28'0 0.0
2017-Nov-08 00:55N 47°08' W 002°28'0 0.0
2017-Nov-08 00:28N 47°08' W 002°28'0 0.1
2017-Nov-07 23:58N 47°08' W 002°28'0 0.0
2017-Nov-07 23:28N 47°08' W 002°28'0 0.0
2017-Nov-07 22:58N 47°08' W 002°28'0 0.0
2017-Nov-07 22:28N 47°08' W 002°28'0 0.0
2017-Nov-07 21:55N 47°08' W 002°28'0 0.0
2017-Nov-07 21:25N 47°08' W 002°28'0 0.0
2017-Nov-07 20:55N 47°08' W 002°28'0 0.0
2017-Nov-07 20:28N 47°08' W 002°28'0 0.0
2017-Nov-07 19:55N 47°08' W 002°28'0 0.0
2017-Nov-07 19:28N 47°08' W 002°28'0 0.1
2017-Nov-07 18:58N 47°08' W 002°28'0 0.0
2017-Nov-07 18:25N 47°08' W 002°28'0 0.2
2017-Nov-07 17:55N 47°08' W 002°28'0 0.2
2017-Nov-07 17:13N 47°08' W 002°28'0 0.0
2017-Nov-07 16:58N 47°08' W 002°28'0 0.1
2017-Nov-07 16:28N 47°08' W 002°28'0 0.0
2017-Nov-07 15:55N 47°08' W 002°28'0 0.0
2017-Nov-07 15:22N 47°08' W 002°28'0 0.0
2017-Nov-07 14:55N 47°08' W 002°28'0 0.0
2017-Nov-07 14:28N 47°08' W 002°28'0 0.0
2017-Nov-07 13:43N 47°08' W 002°28'0 0.0
2017-Nov-07 13:25N 47°08' W 002°28'0 0.1
2017-Nov-07 12:55N 47°08' W 002°28'0 0.0
2017-Nov-07 12:10N 47°08' W 002°28'0 0.1
2017-Nov-07 11:46N 47°08' W 002°28'0 0.1
2017-Nov-07 11:22N 47°08' W 002°28'0 0.1
2017-Nov-07 10:58N 47°08' W 002°28'0 0.1
2017-Nov-07 10:01N 47°08' W 002°28'0 0.0
2017-Nov-07 09:49N 47°08' W 002°28'0 0.0
2017-Nov-07 09:10N 47°08' W 002°28'0 0.0
2017-Nov-07 08:49N 47°08' W 002°28'0 0.0
2017-Nov-07 08:13N 47°08' W 002°28'0 0.0
2017-Nov-07 07:58N 47°08' W 002°28'0 0.0
2017-Nov-07 07:28N 47°08' W 002°28'0 0.0
2017-Nov-07 06:58N 47°08' W 002°28'0 0.0
2017-Nov-07 06:28N 47°08' W 002°28'0 0.0
2017-Nov-07 05:55N 47°08' W 002°28'0 0.0
2017-Nov-07 05:25N 47°08' W 002°28'0 0.1
2017-Nov-07 04:58N 47°08' W 002°28'0 0.1
2017-Nov-07 04:28N 47°08' W 002°28'0 0.1
2017-Nov-07 03:58N 47°08' W 002°28'0 0.0
2017-Nov-07 03:28N 47°08' W 002°28'0 0.0
2017-Nov-07 02:49N 47°08' W 002°28'0 0.0
2017-Nov-07 02:25N 47°08' W 002°28'0 0.0
2017-Nov-07 01:58N 47°08' W 002°28'0 0.0
2017-Nov-07 01:28N 47°08' W 002°28'0 0.0
2017-Nov-07 00:58N 47°08' W 002°28'0 0.1
2017-Nov-07 00:28N 47°08' W 002°28'0 0.0
2017-Nov-06 23:58N 47°08' W 002°28'0 0.2
2017-Nov-06 23:28N 47°08' W 002°28'0 0.1
2017-Nov-06 22:55N 47°08' W 002°28'0 0.1
2017-Nov-06 22:28N 47°08' W 002°28'0 0.0
2017-Nov-06 21:58N 47°08' W 002°28'0 0.0
2017-Nov-06 21:25N 47°08' W 002°28'0 0.0
2017-Nov-06 20:58N 47°08' W 002°28'0 0.0
2017-Nov-06 20:28N 47°08' W 002°28'0 0.0
2017-Nov-06 02:31N 47°08' W 002°28'0 0.0
2017-Nov-06 02:01N 47°08' W 002°28'0 0.0
2017-Nov-06 01:31N 47°08' W 002°28'0 0.0
2017-Nov-06 01:01N 47°08' W 002°28'0 0.0
2017-Nov-06 00:31N 47°08' W 002°28'0 0.0
2017-Nov-06 00:01N 47°08' W 002°28'0 0.0
2017-Nov-05 23:31N 47°08' W 002°28'0 0.1
2017-Nov-05 23:01N 47°08' W 002°28'0 0.0
2017-Nov-05 22:31N 47°08' W 002°28'0 0.1
2017-Nov-05 22:01N 47°08' W 002°28'0 0.1
2017-Nov-05 21:31N 47°08' W 002°28'0 0.0
2017-Nov-05 20:55N 47°08' W 002°28'0 0.0
2017-Nov-05 20:28N 47°08' W 002°28'0 0.0
2017-Nov-05 20:01N 47°08' W 002°28'0 0.0
2017-Nov-05 19:22N 47°08' W 002°28'0 0.0
2017-Nov-05 18:43N 47°08' W 002°28'0 0.0
2017-Nov-05 18:21N 47°08' W 002°28'0 0.0
2017-Nov-05 17:57N 47°08' W 002°28'0 0.0
2017-Nov-05 17:30N 47°08' W 002°28'0 0.0
2017-Nov-05 17:01N 47°08' W 002°28'0 0.1
2017-Nov-05 16:31N 47°08' W 002°28'0 0.0
2017-Nov-05 14:40N 47°08' W 002°28'0 0.0
2017-Nov-05 14:21N 47°08' W 002°28'0 0.1
2017-Nov-05 13:58N 47°08' W 002°28'0 0.0
2017-Nov-05 13:25N 47°08' W 002°28'2 4.0
2017-Nov-05 12:59N 47°07' W 002°29'511.5
2017-Nov-05 12:30N 47°02' W 002°34'16511.6
2017-Nov-04 22:14N 44°18' W 003°01'311.8
2017-Nov-04 22:00N 44°15' W 003°01'712.3
2017-Nov-04 21:24N 44°08' W 003°02'1512.2
2017-Nov-04 20:08N 43°53' W 003°03'212.2
2017-Nov-04 20:00N 43°51' W 003°03'612.6
2017-Nov-04 19:30N 43°45' W 003°04'713.2
2017-Nov-04 19:00N 43°38' W 003°06'612.9
2017-Nov-04 18:30N 43°32' W 003°05'  

Dump ship's entire track history